sensor_id;sensor_type;location;lat;lon;timestamp;P1;durP1;ratioP1;P2;durP2;ratioP2
11612;SDS011;5862;48.718;9.108;2022-07-23T00:00:31;4.15;;;3.63;;
11612;SDS011;5862;48.718;9.108;2022-07-23T00:03:05;3.83;;;3.50;;
11612;SDS011;5862;48.718;9.108;2022-07-23T00:05:34;3.20;;;3.00;;
11612;SDS011;5862;48.718;9.108;2022-07-23T00:08:04;3.42;;;3.13;;
11612;SDS011;5862;48.718;9.108;2022-07-23T00:10:38;3.80;;;3.50;;
11612;SDS011;5862;48.718;9.108;2022-07-23T00:13:05;3.33;;;3.03;;
11612;SDS011;5862;48.718;9.108;2022-07-23T00:15:34;3.13;;;2.92;;
11612;SDS011;5862;48.718;9.108;2022-07-23T00:18:01;3.25;;;2.97;;
11612;SDS011;5862;48.718;9.108;2022-07-23T00:20:27;3.53;;;3.22;;
11612;SDS011;5862;48.718;9.108;2022-07-23T00:22:54;3.30;;;3.00;;
11612;SDS011;5862;48.718;9.108;2022-07-23T00:25:22;3.42;;;3.13;;
11612;SDS011;5862;48.718;9.108;2022-07-23T00:27:55;3.58;;;3.22;;
11612;SDS011;5862;48.718;9.108;2022-07-23T00:30:21;2.97;;;2.78;;
11612;SDS011;5862;48.718;9.108;2022-07-23T00:32:49;3.28;;;2.97;;
11612;SDS011;5862;48.718;9.108;2022-07-23T00:35:22;2.70;;;2.50;;
11612;SDS011;5862;48.718;9.108;2022-07-23T00:37:57;3.05;;;2.85;;
11612;SDS011;5862;48.718;9.108;2022-07-23T00:40:29;3.08;;;2.78;;
11612;SDS011;5862;48.718;9.108;2022-07-23T00:42:58;2.80;;;2.60;;
11612;SDS011;5862;48.718;9.108;2022-07-23T00:45:27;3.28;;;2.97;;
11612;SDS011;5862;48.718;9.108;2022-07-23T00:47:56;2.58;;;2.40;;
11612;SDS011;5862;48.718;9.108;2022-07-23T00:50:25;3.03;;;2.83;;
11612;SDS011;5862;48.718;9.108;2022-07-23T00:52:52;3.33;;;3.03;;
11612;SDS011;5862;48.718;9.108;2022-07-23T00:55:21;2.80;;;2.60;;
11612;SDS011;5862;48.718;9.108;2022-07-23T00:57:50;3.60;;;3.30;;
11612;SDS011;5862;48.718;9.108;2022-07-23T01:00:21;3.60;;;3.30;;
11612;SDS011;5862;48.718;9.108;2022-07-23T01:02:48;3.65;;;2.75;;
11612;SDS011;5862;48.718;9.108;2022-07-23T01:05:14;3.40;;;3.20;;
11612;SDS011;5862;48.718;9.108;2022-07-23T01:07:43;3.17;;;2.97;;
11612;SDS011;5862;48.718;9.108;2022-07-23T01:10:11;2.90;;;2.70;;
11612;SDS011;5862;48.718;9.108;2022-07-23T01:12:56;3.28;;;3.08;;
11612;SDS011;5862;48.718;9.108;2022-07-23T01:15:26;3.10;;;2.90;;
11612;SDS011;5862;48.718;9.108;2022-07-23T01:17:53;3.40;;;3.05;;
11612;SDS011;5862;48.718;9.108;2022-07-23T01:20:19;3.50;;;3.20;;
11612;SDS011;5862;48.718;9.108;2022-07-23T01:22:49;3.92;;;3.63;;
11612;SDS011;5862;48.718;9.108;2022-07-23T01:25:16;4.95;;;4.53;;
11612;SDS011;5862;48.718;9.108;2022-07-23T01:27:45;7.18;;;6.50;;
11612;SDS011;5862;48.718;9.108;2022-07-23T01:30:11;5.93;;;5.38;;
11612;SDS011;5862;48.718;9.108;2022-07-23T01:32:39;5.05;;;4.65;;
11612;SDS011;5862;48.718;9.108;2022-07-23T01:35:06;4.70;;;4.28;;
11612;SDS011;5862;48.718;9.108;2022-07-23T01:37:38;3.60;;;3.30;;
11612;SDS011;5862;48.718;9.108;2022-07-23T01:40:07;4.00;;;3.67;;
11612;SDS011;5862;48.718;9.108;2022-07-23T01:42:36;4.50;;;4.07;;
11612;SDS011;5862;48.718;9.108;2022-07-23T01:45:03;3.83;;;3.53;;
11612;SDS011;5862;48.718;9.108;2022-07-23T01:47:35;3.05;;;2.85;;
11612;SDS011;5862;48.718;9.108;2022-07-23T01:50:04;3.33;;;3.10;;
11612;SDS011;5862;48.718;9.108;2022-07-23T01:52:31;4.40;;;4.10;;
11612;SDS011;5862;48.718;9.108;2022-07-23T01:54:57;4.38;;;3.97;;
11612;SDS011;5862;48.718;9.108;2022-07-23T01:57:26;3.55;;;3.25;;
11612;SDS011;5862;48.718;9.108;2022-07-23T01:59:53;4.22;;;3.88;;
11612;SDS011;5862;48.718;9.108;2022-07-23T02:02:19;4.40;;;3.53;;
11612;SDS011;5862;48.718;9.108;2022-07-23T02:04:48;3.35;;;3.05;;
11612;SDS011;5862;48.718;9.108;2022-07-23T02:07:15;3.10;;;2.90;;
11612;SDS011;5862;48.718;9.108;2022-07-23T02:09:41;3.47;;;3.13;;
11612;SDS011;5862;48.718;9.108;2022-07-23T02:12:08;2.78;;;2.58;;
11612;SDS011;5862;48.718;9.108;2022-07-23T02:14:34;2.67;;;2.47;;
11612;SDS011;5862;48.718;9.108;2022-07-23T02:17:04;3.47;;;3.28;;
11612;SDS011;5862;48.718;9.108;2022-07-23T02:19:30;2.90;;;2.70;;
11612;SDS011;5862;48.718;9.108;2022-07-23T02:21:57;3.53;;;3.22;;
11612;SDS011;5862;48.718;9.108;2022-07-23T02:24:23;3.10;;;2.90;;
11612;SDS011;5862;48.718;9.108;2022-07-23T02:26:50;2.75;;;2.55;;
11612;SDS011;5862;48.718;9.108;2022-07-23T02:29:16;2.80;;;2.60;;
11612;SDS011;5862;48.718;9.108;2022-07-23T02:31:43;3.38;;;3.08;;
11612;SDS011;5862;48.718;9.108;2022-07-23T02:34:09;3.08;;;2.88;;
11612;SDS011;5862;48.718;9.108;2022-07-23T02:36:41;2.95;;;2.65;;
11612;SDS011;5862;48.718;9.108;2022-07-23T02:39:07;2.65;;;2.45;;
11612;SDS011;5862;48.718;9.108;2022-07-23T02:41:34;2.80;;;2.60;;
11612;SDS011;5862;48.718;9.108;2022-07-23T02:44:00;3.42;;;2.97;;
11612;SDS011;5862;48.718;9.108;2022-07-23T02:46:27;3.10;;;2.80;;
11612;SDS011;5862;48.718;9.108;2022-07-23T02:48:58;3.13;;;2.92;;
11612;SDS011;5862;48.718;9.108;2022-07-23T02:51:28;2.65;;;2.45;;
11612;SDS011;5862;48.718;9.108;2022-07-23T02:53:54;2.97;;;2.78;;
11612;SDS011;5862;48.718;9.108;2022-07-23T02:56:21;3.63;;;3.03;;
11612;SDS011;5862;48.718;9.108;2022-07-23T02:58:47;2.95;;;2.75;;
11612;SDS011;5862;48.718;9.108;2022-07-23T03:01:14;2.80;;;2.60;;
11612;SDS011;5862;48.718;9.108;2022-07-23T03:03:43;2.53;;;2.33;;
11612;SDS011;5862;48.718;9.108;2022-07-23T03:06:12;2.80;;;2.60;;
11612;SDS011;5862;48.718;9.108;2022-07-23T03:08:41;3.05;;;2.83;;
11612;SDS011;5862;48.718;9.108;2022-07-23T03:11:07;2.80;;;2.60;;
11612;SDS011;5862;48.718;9.108;2022-07-23T03:13:40;3.00;;;2.80;;
11612;SDS011;5862;48.718;9.108;2022-07-23T03:16:07;3.20;;;2.90;;
11612;SDS011;5862;48.718;9.108;2022-07-23T03:18:33;3.72;;;3.42;;
11612;SDS011;5862;48.718;9.108;2022-07-23T03:21:05;3.00;;;2.80;;
11612;SDS011;5862;48.718;9.108;2022-07-23T03:23:35;2.63;;;2.30;;
11612;SDS011;5862;48.718;9.108;2022-07-23T03:26:01;3.50;;;3.10;;
11612;SDS011;5862;48.718;9.108;2022-07-23T03:28:28;3.25;;;2.95;;
11612;SDS011;5862;48.718;9.108;2022-07-23T03:30:55;2.92;;;2.67;;
11612;SDS011;5862;48.718;9.108;2022-07-23T03:33:26;2.22;;;1.90;;
11612;SDS011;5862;48.718;9.108;2022-07-23T03:35:55;2.00;;;1.90;;
11612;SDS011;5862;48.718;9.108;2022-07-23T03:38:21;1.98;;;1.77;;
11612;SDS011;5862;48.718;9.108;2022-07-23T03:40:51;2.67;;;2.47;;
11612;SDS011;5862;48.718;9.108;2022-07-23T03:43:19;2.42;;;2.22;;
11612;SDS011;5862;48.718;9.108;2022-07-23T03:45:46;3.33;;;3.10;;
11612;SDS011;5862;48.718;9.108;2022-07-23T03:48:15;2.72;;;2.53;;
11612;SDS011;5862;48.718;9.108;2022-07-23T03:50:43;3.10;;;2.90;;
11612;SDS011;5862;48.718;9.108;2022-07-23T03:53:10;3.13;;;2.92;;
11612;SDS011;5862;48.718;9.108;2022-07-23T03:55:36;3.08;;;2.88;;
11612;SDS011;5862;48.718;9.108;2022-07-23T03:58:03;2.83;;;2.55;;
11612;SDS011;5862;48.718;9.108;2022-07-23T04:00:32;3.03;;;2.83;;
11612;SDS011;5862;48.718;9.108;2022-07-23T04:03:00;3.38;;;3.15;;
11612;SDS011;5862;48.718;9.108;2022-07-23T04:05:27;4.20;;;3.80;;
11612;SDS011;5862;48.718;9.108;2022-07-23T04:07:53;3.08;;;2.88;;
11612;SDS011;5862;48.718;9.108;2022-07-23T04:10:20;3.72;;;3.00;;
11612;SDS011;5862;48.718;9.108;2022-07-23T04:12:46;2.80;;;2.60;;
11612;SDS011;5862;48.718;9.108;2022-07-23T04:15:15;3.88;;;3.05;;
11612;SDS011;5862;48.718;9.108;2022-07-23T04:17:42;3.78;;;3.47;;
11612;SDS011;5862;48.718;9.108;2022-07-23T04:20:10;3.33;;;3.13;;
11612;SDS011;5862;48.718;9.108;2022-07-23T04:22:37;3.33;;;3.13;;
11612;SDS011;5862;48.718;9.108;2022-07-23T04:25:04;2.85;;;2.65;;
11612;SDS011;5862;48.718;9.108;2022-07-23T04:27:34;3.33;;;3.05;;
11612;SDS011;5862;48.718;9.108;2022-07-23T04:30:00;3.20;;;2.85;;
11612;SDS011;5862;48.718;9.108;2022-07-23T04:32:27;3.20;;;3.00;;
11612;SDS011;5862;48.718;9.108;2022-07-23T04:34:55;3.08;;;2.85;;
11612;SDS011;5862;48.718;9.108;2022-07-23T04:37:24;3.42;;;3.10;;
11612;SDS011;5862;48.718;9.108;2022-07-23T04:39:53;3.10;;;2.90;;
11612;SDS011;5862;48.718;9.108;2022-07-23T04:42:22;3.42;;;3.00;;
11612;SDS011;5862;48.718;9.108;2022-07-23T04:44:50;2.58;;;2.38;;
11612;SDS011;5862;48.718;9.108;2022-07-23T04:47:17;3.10;;;2.90;;
11612;SDS011;5862;48.718;9.108;2022-07-23T04:49:48;2.90;;;2.70;;
11612;SDS011;5862;48.718;9.108;2022-07-23T04:52:16;3.10;;;2.90;;
11612;SDS011;5862;48.718;9.108;2022-07-23T04:54:43;3.00;;;2.80;;
11612;SDS011;5862;48.718;9.108;2022-07-23T04:57:14;3.03;;;2.83;;
11612;SDS011;5862;48.718;9.108;2022-07-23T04:59:41;3.38;;;3.08;;
11612;SDS011;5862;48.718;9.108;2022-07-23T05:02:10;3.47;;;3.17;;
11612;SDS011;5862;48.718;9.108;2022-07-23T05:04:36;3.50;;;3.20;;
11612;SDS011;5862;48.718;9.108;2022-07-23T05:07:03;3.20;;;2.90;;
11612;SDS011;5862;48.718;9.108;2022-07-23T05:09:29;3.38;;;3.08;;
11612;SDS011;5862;48.718;9.108;2022-07-23T05:12:01;3.00;;;2.80;;
11612;SDS011;5862;48.718;9.108;2022-07-23T05:14:28;2.90;;;2.70;;
11612;SDS011;5862;48.718;9.108;2022-07-23T05:16:59;3.22;;;3.03;;
11612;SDS011;5862;48.718;9.108;2022-07-23T05:19:27;3.72;;;3.42;;
11612;SDS011;5862;48.718;9.108;2022-07-23T05:21:54;3.90;;;3.53;;
11612;SDS011;5862;48.718;9.108;2022-07-23T05:24:23;4.05;;;3.75;;
11612;SDS011;5862;48.718;9.108;2022-07-23T05:26:52;3.47;;;3.20;;
11612;SDS011;5862;48.718;9.108;2022-07-23T05:29:24;3.63;;;3.33;;
11612;SDS011;5862;48.718;9.108;2022-07-23T05:31:51;3.30;;;3.10;;
11612;SDS011;5862;48.718;9.108;2022-07-23T05:34:17;3.22;;;2.95;;
11612;SDS011;5862;48.718;9.108;2022-07-23T05:36:46;3.90;;;3.60;;
11612;SDS011;5862;48.718;9.108;2022-07-23T05:39:14;3.55;;;3.25;;
11612;SDS011;5862;48.718;9.108;2022-07-23T05:41:41;3.67;;;3.38;;
11612;SDS011;5862;48.718;9.108;2022-07-23T05:44:08;4.03;;;3.63;;
11612;SDS011;5862;48.718;9.108;2022-07-23T05:46:34;3.78;;;3.47;;
11612;SDS011;5862;48.718;9.108;2022-07-23T05:49:03;3.85;;;3.55;;
11612;SDS011;5862;48.718;9.108;2022-07-23T05:51:33;3.33;;;3.05;;
11612;SDS011;5862;48.718;9.108;2022-07-23T05:54:02;3.55;;;3.25;;
11612;SDS011;5862;48.718;9.108;2022-07-23T05:56:28;3.60;;;3.30;;
11612;SDS011;5862;48.718;9.108;2022-07-23T05:58:57;3.83;;;3.53;;
11612;SDS011;5862;48.718;9.108;2022-07-23T06:01:24;3.78;;;3.47;;
11612;SDS011;5862;48.718;9.108;2022-07-23T06:03:51;3.63;;;3.30;;
11612;SDS011;5862;48.718;9.108;2022-07-23T06:06:18;3.50;;;3.20;;
11612;SDS011;5862;48.718;9.108;2022-07-23T06:08:44;3.10;;;2.80;;
11612;SDS011;5862;48.718;9.108;2022-07-23T06:11:11;3.25;;;3.05;;
11612;SDS011;5862;48.718;9.108;2022-07-23T06:13:37;2.70;;;2.50;;
11612;SDS011;5862;48.718;9.108;2022-07-23T06:16:06;3.85;;;3.55;;
11612;SDS011;5862;48.718;9.108;2022-07-23T06:18:35;4.22;;;3.92;;
11612;SDS011;5862;48.718;9.108;2022-07-23T06:21:04;4.05;;;3.70;;
11612;SDS011;5862;48.718;9.108;2022-07-23T06:23:51;7.63;;;3.95;;
11612;SDS011;5862;48.718;9.108;2022-07-23T06:26:20;4.22;;;3.92;;
11612;SDS011;5862;48.718;9.108;2022-07-23T06:28:51;3.47;;;3.28;;
11612;SDS011;5862;48.718;9.108;2022-07-23T06:31:20;3.40;;;3.20;;
11612;SDS011;5862;48.718;9.108;2022-07-23T06:33:49;3.05;;;2.85;;
11612;SDS011;5862;48.718;9.108;2022-07-23T06:36:16;3.90;;;3.60;;
11612;SDS011;5862;48.718;9.108;2022-07-23T06:38:42;3.17;;;2.97;;
11612;SDS011;5862;48.718;9.108;2022-07-23T06:41:12;3.05;;;2.85;;
11612;SDS011;5862;48.718;9.108;2022-07-23T06:43:39;3.83;;;3.47;;
11612;SDS011;5862;48.718;9.108;2022-07-23T06:46:05;3.65;;;3.35;;
11612;SDS011;5862;48.718;9.108;2022-07-23T06:48:34;3.13;;;2.92;;
11612;SDS011;5862;48.718;9.108;2022-07-23T06:51:02;3.63;;;3.33;;
11612;SDS011;5862;48.718;9.108;2022-07-23T06:53:30;2.88;;;2.67;;
11612;SDS011;5862;48.718;9.108;2022-07-23T06:55:56;3.20;;;2.97;;
11612;SDS011;5862;48.718;9.108;2022-07-23T06:58:25;2.38;;;2.28;;
11612;SDS011;5862;48.718;9.108;2022-07-23T07:00:52;3.10;;;2.80;;
11612;SDS011;5862;48.718;9.108;2022-07-23T07:03:23;3.90;;;3.60;;
11612;SDS011;5862;48.718;9.108;2022-07-23T07:05:51;3.78;;;3.47;;
11612;SDS011;5862;48.718;9.108;2022-07-23T07:08:19;4.80;;;4.13;;
11612;SDS011;5862;48.718;9.108;2022-07-23T07:10:45;3.95;;;3.63;;
11612;SDS011;5862;48.718;9.108;2022-07-23T07:13:12;3.95;;;3.65;;
11612;SDS011;5862;48.718;9.108;2022-07-23T07:15:38;3.95;;;3.53;;
11612;SDS011;5862;48.718;9.108;2022-07-23T07:18:05;3.42;;;3.13;;
11612;SDS011;5862;48.718;9.108;2022-07-23T07:20:34;4.40;;;3.97;;
11612;SDS011;5862;48.718;9.108;2022-07-23T07:23:03;3.80;;;3.50;;
11612;SDS011;5862;48.718;9.108;2022-07-23T07:25:34;3.60;;;3.30;;
11612;SDS011;5862;48.718;9.108;2022-07-23T07:28:01;3.85;;;3.55;;
11612;SDS011;5862;48.718;9.108;2022-07-23T07:30:30;3.95;;;3.65;;
11612;SDS011;5862;48.718;9.108;2022-07-23T07:32:59;4.50;;;4.10;;
11612;SDS011;5862;48.718;9.108;2022-07-23T07:35:28;4.90;;;4.50;;
11612;SDS011;5862;48.718;9.108;2022-07-23T07:37:54;4.03;;;3.67;;
11612;SDS011;5862;48.718;9.108;2022-07-23T07:40:21;3.03;;;2.80;;
11612;SDS011;5862;48.718;9.108;2022-07-23T07:42:48;3.50;;;3.20;;
11612;SDS011;5862;48.718;9.108;2022-07-23T07:45:22;4.07;;;3.67;;
11612;SDS011;5862;48.718;9.108;2022-07-23T07:47:51;3.50;;;3.30;;
11612;SDS011;5862;48.718;9.108;2022-07-23T07:50:21;3.95;;;3.60;;
11612;SDS011;5862;48.718;9.108;2022-07-23T07:52:48;3.58;;;3.28;;
11612;SDS011;5862;48.718;9.108;2022-07-23T07:55:14;3.53;;;3.22;;
11612;SDS011;5862;48.718;9.108;2022-07-23T07:57:44;3.72;;;3.42;;
11612;SDS011;5862;48.718;9.108;2022-07-23T08:00:14;3.55;;;3.25;;
11612;SDS011;5862;48.718;9.108;2022-07-23T08:02:49;3.97;;;3.50;;
11612;SDS011;5862;48.718;9.108;2022-07-23T08:05:25;3.42;;;3.00;;
11612;SDS011;5862;48.718;9.108;2022-07-23T08:07:57;3.55;;;3.28;;
11612;SDS011;5862;48.718;9.108;2022-07-23T08:10:24;2.72;;;2.53;;
11612;SDS011;5862;48.718;9.108;2022-07-23T08:12:53;3.00;;;2.80;;
11612;SDS011;5862;48.718;9.108;2022-07-23T08:15:25;3.38;;;3.08;;
11612;SDS011;5862;48.718;9.108;2022-07-23T08:17:57;3.78;;;3.47;;
11612;SDS011;5862;48.718;9.108;2022-07-23T08:20:25;3.15;;;2.95;;
11612;SDS011;5862;48.718;9.108;2022-07-23T08:22:58;2.70;;;2.50;;
11612;SDS011;5862;48.718;9.108;2022-07-23T08:25:33;3.30;;;3.08;;
11612;SDS011;5862;48.718;9.108;2022-07-23T08:28:08;3.13;;;2.92;;
11612;SDS011;5862;48.718;9.108;2022-07-23T08:30:38;2.95;;;2.70;;
11612;SDS011;5862;48.718;9.108;2022-07-23T08:35:56;3.10;;;2.90;;
11612;SDS011;5862;48.718;9.108;2022-07-23T08:38:23;2.95;;;2.75;;
11612;SDS011;5862;48.718;9.108;2022-07-23T08:40:53;2.60;;;2.42;;
11612;SDS011;5862;48.718;9.108;2022-07-23T08:43:25;3.85;;;3.20;;
11612;SDS011;5862;48.718;9.108;2022-07-23T08:45:54;2.92;;;2.72;;
11612;SDS011;5862;48.718;9.108;2022-07-23T08:48:28;3.65;;;3.45;;
11612;SDS011;5862;48.718;9.108;2022-07-23T08:50:56;3.53;;;3.22;;
11612;SDS011;5862;48.718;9.108;2022-07-23T08:53:27;3.53;;;3.22;;
11612;SDS011;5862;48.718;9.108;2022-07-23T08:55:55;2.90;;;2.70;;
11612;SDS011;5862;48.718;9.108;2022-07-23T08:58:23;2.72;;;2.53;;
11612;SDS011;5862;48.718;9.108;2022-07-23T09:00:54;2.88;;;2.67;;
11612;SDS011;5862;48.718;9.108;2022-07-23T09:03:28;2.85;;;2.65;;
11612;SDS011;5862;48.718;9.108;2022-07-23T09:05:58;3.38;;;3.08;;
11612;SDS011;5862;48.718;9.108;2022-07-23T09:08:34;3.10;;;2.90;;
11612;SDS011;5862;48.718;9.108;2022-07-23T09:11:03;2.83;;;2.55;;
11612;SDS011;5862;48.718;9.108;2022-07-23T09:13:36;3.05;;;2.85;;
11612;SDS011;5862;48.718;9.108;2022-07-23T09:16:05;2.80;;;2.60;;
11612;SDS011;5862;48.718;9.108;2022-07-23T09:18:35;3.80;;;3.50;;
11612;SDS011;5862;48.718;9.108;2022-07-23T09:21:10;2.83;;;2.63;;
11612;SDS011;5862;48.718;9.108;2022-07-23T09:23:51;3.17;;;2.97;;
11612;SDS011;5862;48.718;9.108;2022-07-23T09:26:33;3.00;;;2.80;;
11612;SDS011;5862;48.718;9.108;2022-07-23T09:29:01;3.17;;;2.88;;
11612;SDS011;5862;48.718;9.108;2022-07-23T09:31:54;3.25;;;3.05;;
11612;SDS011;5862;48.718;9.108;2022-07-23T09:34:32;3.30;;;3.00;;
11612;SDS011;5862;48.718;9.108;2022-07-23T09:39:43;3.03;;;2.83;;
11612;SDS011;5862;48.718;9.108;2022-07-23T09:44:47;4.00;;;3.70;;
11612;SDS011;5862;48.718;9.108;2022-07-23T09:47:18;3.78;;;3.28;;
11612;SDS011;5862;48.718;9.108;2022-07-23T09:52:33;3.22;;;2.92;;
11612;SDS011;5862;48.718;9.108;2022-07-23T09:55:04;2.75;;;2.65;;
11612;SDS011;5862;48.718;9.108;2022-07-23T09:57:34;3.55;;;3.25;;
11612;SDS011;5862;48.718;9.108;2022-07-23T10:00:06;3.40;;;3.10;;
11612;SDS011;5862;48.718;9.108;2022-07-23T10:02:35;2.78;;;2.58;;
11612;SDS011;5862;48.718;9.108;2022-07-23T10:05:02;3.17;;;2.88;;
11612;SDS011;5862;48.718;9.108;2022-07-23T10:07:31;3.40;;;3.20;;
11612;SDS011;5862;48.718;9.108;2022-07-23T10:10:00;3.15;;;2.95;;
11612;SDS011;5862;48.718;9.108;2022-07-23T10:12:26;2.90;;;2.67;;
11612;SDS011;5862;48.718;9.108;2022-07-23T10:14:53;2.63;;;2.47;;
11612;SDS011;5862;48.718;9.108;2022-07-23T10:17:22;2.50;;;2.35;;
11612;SDS011;5862;48.718;9.108;2022-07-23T10:19:49;2.70;;;2.50;;
11612;SDS011;5862;48.718;9.108;2022-07-23T10:22:23;2.80;;;2.60;;
11612;SDS011;5862;48.718;9.108;2022-07-23T10:30:47;2.80;;;2.60;;
11612;SDS011;5862;48.718;9.108;2022-07-23T10:36:07;3.03;;;2.83;;
11612;SDS011;5862;48.718;9.108;2022-07-23T10:38:48;4.00;;;3.70;;
11612;SDS011;5862;48.718;9.108;2022-07-23T10:41:17;4.22;;;3.92;;
11612;SDS011;5862;48.718;9.108;2022-07-23T10:46:59;3.80;;;3.50;;
11612;SDS011;5862;48.718;9.108;2022-07-23T10:49:30;3.25;;;3.00;;
11612;SDS011;5862;48.718;9.108;2022-07-23T10:54:44;3.00;;;2.80;;
11612;SDS011;5862;48.718;9.108;2022-07-23T10:57:15;3.20;;;3.00;;
11612;SDS011;5862;48.718;9.108;2022-07-23T11:02:29;3.67;;;3.38;;
11612;SDS011;5862;48.718;9.108;2022-07-23T11:05:00;3.00;;;2.80;;
11612;SDS011;5862;48.718;9.108;2022-07-23T11:07:30;3.28;;;3.03;;
11612;SDS011;5862;48.718;9.108;2022-07-23T11:09:59;3.75;;;3.55;;
11612;SDS011;5862;48.718;9.108;2022-07-23T11:17:33;3.72;;;3.45;;
11612;SDS011;5862;48.718;9.108;2022-07-23T11:22:37;3.30;;;3.10;;
11612;SDS011;5862;48.718;9.108;2022-07-23T11:25:11;3.33;;;3.03;;
11612;SDS011;5862;48.718;9.108;2022-07-23T11:27:42;3.05;;;2.85;;
11612;SDS011;5862;48.718;9.108;2022-07-23T11:30:37;3.90;;;3.70;;
11612;SDS011;5862;48.718;9.108;2022-07-23T11:35:34;3.33;;;3.05;;
11612;SDS011;5862;48.718;9.108;2022-07-23T11:40:46;4.28;;;3.97;;
11612;SDS011;5862;48.718;9.108;2022-07-23T11:43:14;3.60;;;3.40;;
11612;SDS011;5862;48.718;9.108;2022-07-23T11:48:09;4.20;;;3.80;;
11612;SDS011;5862;48.718;9.108;2022-07-23T11:50:41;4.53;;;4.13;;
11612;SDS011;5862;48.718;9.108;2022-07-23T11:53:08;3.95;;;3.63;;
11612;SDS011;5862;48.718;9.108;2022-07-23T11:55:35;4.20;;;3.90;;
11612;SDS011;5862;48.718;9.108;2022-07-23T11:58:01;3.45;;;3.15;;
11612;SDS011;5862;48.718;9.108;2022-07-23T12:00:33;4.97;;;4.22;;
11612;SDS011;5862;48.718;9.108;2022-07-23T12:03:06;3.78;;;3.47;;
11612;SDS011;5862;48.718;9.108;2022-07-23T12:05:34;4.55;;;4.25;;
11612;SDS011;5862;48.718;9.108;2022-07-23T12:08:06;3.53;;;3.33;;
11612;SDS011;5862;48.718;9.108;2022-07-23T12:10:41;4.25;;;3.95;;
11612;SDS011;5862;48.718;9.108;2022-07-23T12:13:17;4.80;;;4.43;;
11612;SDS011;5862;48.718;9.108;2022-07-23T12:15:46;4.70;;;4.30;;
11612;SDS011;5862;48.718;9.108;2022-07-23T12:18:15;4.50;;;4.10;;
11612;SDS011;5862;48.718;9.108;2022-07-23T12:20:45;3.80;;;3.50;;
11612;SDS011;5862;48.718;9.108;2022-07-23T12:23:14;3.75;;;3.45;;
11612;SDS011;5862;48.718;9.108;2022-07-23T12:25:46;4.28;;;3.42;;
11612;SDS011;5862;48.718;9.108;2022-07-23T12:35:57;4.32;;;4.03;;
11612;SDS011;5862;48.718;9.108;2022-07-23T12:38:26;4.20;;;3.90;;
11612;SDS011;5862;48.718;9.108;2022-07-23T12:51:20;4.25;;;3.90;;
11612;SDS011;5862;48.718;9.108;2022-07-23T12:53:54;5.00;;;4.60;;
11612;SDS011;5862;48.718;9.108;2022-07-23T12:56:28;4.88;;;4.22;;
11612;SDS011;5862;48.718;9.108;2022-07-23T13:01:34;4.70;;;4.30;;
11612;SDS011;5862;48.718;9.108;2022-07-23T13:06:38;3.90;;;3.60;;
11612;SDS011;5862;48.718;9.108;2022-07-23T13:09:08;5.07;;;4.25;;
11612;SDS011;5862;48.718;9.108;2022-07-23T13:11:37;3.58;;;3.38;;
11612;SDS011;5862;48.718;9.108;2022-07-23T13:14:04;4.57;;;4.18;;
11612;SDS011;5862;48.718;9.108;2022-07-23T13:16:34;4.55;;;4.15;;
11612;SDS011;5862;48.718;9.108;2022-07-23T13:19:01;4.30;;;3.90;;
11612;SDS011;5862;48.718;9.108;2022-07-23T13:21:29;4.35;;;4.05;;
11612;SDS011;5862;48.718;9.108;2022-07-23T13:23:56;4.43;;;4.03;;
11612;SDS011;5862;48.718;9.108;2022-07-23T13:26:23;4.82;;;4.32;;
11612;SDS011;5862;48.718;9.108;2022-07-23T13:28:50;4.32;;;4.03;;
11612;SDS011;5862;48.718;9.108;2022-07-23T13:31:16;4.18;;;3.88;;
11612;SDS011;5862;48.718;9.108;2022-07-23T13:33:44;3.78;;;3.47;;
11612;SDS011;5862;48.718;9.108;2022-07-23T13:36:16;4.38;;;3.97;;
11612;SDS011;5862;48.718;9.108;2022-07-23T13:38:42;4.45;;;4.05;;
11612;SDS011;5862;48.718;9.108;2022-07-23T13:41:12;3.92;;;3.63;;
11612;SDS011;5862;48.718;9.108;2022-07-23T13:43:38;3.85;;;3.55;;
11612;SDS011;5862;48.718;9.108;2022-07-23T13:46:08;3.65;;;3.40;;
11612;SDS011;5862;48.718;9.108;2022-07-23T13:48:35;3.60;;;3.40;;
11612;SDS011;5862;48.718;9.108;2022-07-23T13:51:07;4.00;;;3.70;;
11612;SDS011;5862;48.718;9.108;2022-07-23T13:53:36;4.00;;;3.70;;
11612;SDS011;5862;48.718;9.108;2022-07-23T13:56:05;3.67;;;3.40;;
11612;SDS011;5862;48.718;9.108;2022-07-23T13:58:34;4.55;;;4.20;;
11612;SDS011;5862;48.718;9.108;2022-07-23T14:01:03;4.20;;;3.90;;
11612;SDS011;5862;48.718;9.108;2022-07-23T14:03:30;3.92;;;3.63;;
11612;SDS011;5862;48.718;9.108;2022-07-23T14:06:01;4.15;;;3.75;;
11612;SDS011;5862;48.718;9.108;2022-07-23T14:08:28;3.40;;;3.20;;
11612;SDS011;5862;48.718;9.108;2022-07-23T14:10:55;3.55;;;3.35;;
11612;SDS011;5862;48.718;9.108;2022-07-23T14:13:24;3.55;;;3.08;;
11612;SDS011;5862;48.718;9.108;2022-07-23T14:15:55;3.50;;;3.30;;
11612;SDS011;5862;48.718;9.108;2022-07-23T14:18:22;4.15;;;3.75;;
11612;SDS011;5862;48.718;9.108;2022-07-23T14:20:58;3.50;;;3.20;;
11612;SDS011;5862;48.718;9.108;2022-07-23T14:23:24;4.35;;;4.03;;
11612;SDS011;5862;48.718;9.108;2022-07-23T14:25:51;3.60;;;3.40;;
11612;SDS011;5862;48.718;9.108;2022-07-23T14:28:20;3.63;;;3.42;;
11612;SDS011;5862;48.718;9.108;2022-07-23T14:30:49;4.07;;;3.78;;
11612;SDS011;5862;48.718;9.108;2022-07-23T14:33:15;4.22;;;3.72;;
11612;SDS011;5862;48.718;9.108;2022-07-23T14:35:44;4.45;;;4.03;;
11612;SDS011;5862;48.718;9.108;2022-07-23T14:38:13;4.53;;;4.00;;
11612;SDS011;5862;48.718;9.108;2022-07-23T14:40:39;4.07;;;3.67;;
11612;SDS011;5862;48.718;9.108;2022-07-23T14:43:06;4.93;;;4.53;;
11612;SDS011;5862;48.718;9.108;2022-07-23T14:45:37;4.40;;;4.10;;
11612;SDS011;5862;48.718;9.108;2022-07-23T14:48:06;5.70;;;4.47;;
11612;SDS011;5862;48.718;9.108;2022-07-23T14:50:36;4.03;;;3.80;;
11612;SDS011;5862;48.718;9.108;2022-07-23T14:53:02;4.18;;;3.88;;
11612;SDS011;5862;48.718;9.108;2022-07-23T14:55:32;4.57;;;4.28;;
11612;SDS011;5862;48.718;9.108;2022-07-23T14:58:00;4.78;;;4.38;;
11612;SDS011;5862;48.718;9.108;2022-07-23T15:00:26;5.20;;;4.80;;
11612;SDS011;5862;48.718;9.108;2022-07-23T15:02:53;3.67;;;3.47;;
11612;SDS011;5862;48.718;9.108;2022-07-23T15:05:21;3.75;;;3.45;;
11612;SDS011;5862;48.718;9.108;2022-07-23T15:07:50;4.28;;;3.97;;
11612;SDS011;5862;48.718;9.108;2022-07-23T15:10:19;4.38;;;3.97;;
11612;SDS011;5862;48.718;9.108;2022-07-23T15:12:48;4.85;;;4.32;;
11612;SDS011;5862;48.718;9.108;2022-07-23T15:15:15;4.72;;;4.10;;
11612;SDS011;5862;48.718;9.108;2022-07-23T15:17:43;5.03;;;4.60;;
11612;SDS011;5862;48.718;9.108;2022-07-23T15:20:09;3.97;;;3.58;;
11612;SDS011;5862;48.718;9.108;2022-07-23T15:22:36;4.80;;;4.40;;
11612;SDS011;5862;48.718;9.108;2022-07-23T15:25:02;4.10;;;3.80;;
11612;SDS011;5862;48.718;9.108;2022-07-23T15:27:30;3.95;;;3.65;;
11612;SDS011;5862;48.718;9.108;2022-07-23T15:29:56;4.90;;;4.50;;
11612;SDS011;5862;48.718;9.108;2022-07-23T15:32:23;4.93;;;4.53;;
11612;SDS011;5862;48.718;9.108;2022-07-23T15:34:53;5.00;;;4.60;;
11612;SDS011;5862;48.718;9.108;2022-07-23T15:37:20;4.72;;;4.35;;
11612;SDS011;5862;48.718;9.108;2022-07-23T15:39:52;4.80;;;3.95;;
11612;SDS011;5862;48.718;9.108;2022-07-23T15:42:19;4.18;;;3.88;;
11612;SDS011;5862;48.718;9.108;2022-07-23T15:44:46;4.18;;;3.88;;
11612;SDS011;5862;48.718;9.108;2022-07-23T15:47:13;4.70;;;4.25;;
11612;SDS011;5862;48.718;9.108;2022-07-23T15:49:42;5.53;;;4.78;;
11612;SDS011;5862;48.718;9.108;2022-07-23T15:52:12;5.78;;;4.30;;
11612;SDS011;5862;48.718;9.108;2022-07-23T15:54:39;4.80;;;4.40;;
11612;SDS011;5862;48.718;9.108;2022-07-23T15:57:06;4.70;;;4.35;;
11612;SDS011;5862;48.718;9.108;2022-07-23T15:59:33;4.90;;;4.50;;
11612;SDS011;5862;48.718;9.108;2022-07-23T16:02:00;5.00;;;4.60;;
11612;SDS011;5862;48.718;9.108;2022-07-23T16:04:26;4.40;;;4.00;;
11612;SDS011;5862;48.718;9.108;2022-07-23T16:06:58;4.70;;;4.30;;
11612;SDS011;5862;48.718;9.108;2022-07-23T16:09:27;5.03;;;4.47;;
11612;SDS011;5862;48.718;9.108;2022-07-23T16:12:01;4.22;;;3.92;;
11612;SDS011;5862;48.718;9.108;2022-07-23T16:14:33;4.97;;;4.57;;
11612;SDS011;5862;48.718;9.108;2022-07-23T16:16:59;4.30;;;3.90;;